createdAt,value
2023-05-19T00:01:15.332Z,5.68
2023-05-19T00:03:53.970Z,3.30
2023-05-19T00:06:25.906Z,3.63
2023-05-19T00:09:02.372Z,3.75
2023-05-19T00:11:29.710Z,4.70
2023-05-19T00:13:59.088Z,3.78
2023-05-19T00:16:27.756Z,3.55
2023-05-19T00:18:54.836Z,4.30
2023-05-19T00:21:21.817Z,4.32
2023-05-19T00:23:48.675Z,4.25
2023-05-19T00:26:15.446Z,5.10
2023-05-19T00:28:42.137Z,3.83
2023-05-19T00:31:09.143Z,4.57
2023-05-19T00:33:36.705Z,6.60
2023-05-19T00:36:04.156Z,4.13
2023-05-19T00:38:31.773Z,4.47
2023-05-19T00:40:59.378Z,4.65
2023-05-19T00:43:26.529Z,3.33
2023-05-19T00:45:53.482Z,4.90
2023-05-19T00:48:21.228Z,4.07
2023-05-19T00:50:48.529Z,5.88
2023-05-19T00:53:15.313Z,4.53
2023-05-19T00:55:42.125Z,3.40
2023-05-19T00:58:09.899Z,5.53
2023-05-19T01:00:37.324Z,3.88
2023-05-19T01:03:11.518Z,3.55
2023-05-19T01:05:42.467Z,3.83
2023-05-19T01:08:09.405Z,4.30
2023-05-19T01:10:36.210Z,3.65
2023-05-19T01:13:03.946Z,3.83
2023-05-19T01:15:30.845Z,4.03
2023-05-19T01:18:11.407Z,4.90
2023-05-19T01:20:46.549Z,3.60
2023-05-19T01:23:18.556Z,3.80
2023-05-19T01:25:55.851Z,4.60
2023-05-19T01:28:47.992Z,3.85
2023-05-19T01:31:14.726Z,3.55
2023-05-19T01:33:41.630Z,4.82
2023-05-19T01:36:08.585Z,6.43
2023-05-19T01:38:35.622Z,4.25
2023-05-19T01:41:04.077Z,4.38
2023-05-19T01:43:30.948Z,3.88
2023-05-19T01:45:59.074Z,3.60
2023-05-19T01:48:25.975Z,3.10
2023-05-19T01:50:52.961Z,4.38
2023-05-19T01:53:19.859Z,8.07
2023-05-19T01:55:50.080Z,5.35
2023-05-19T01:58:25.914Z,5.13
2023-05-19T02:01:01.752Z,5.65
2023-05-19T02:03:47.687Z,4.38
2023-05-19T02:06:42.636Z,4.57
2023-05-19T02:09:12.861Z,4.75
2023-05-19T02:11:47.688Z,5.10
2023-05-19T02:14:18.363Z,6.50
2023-05-19T02:16:46.441Z,7.68
2023-05-19T02:19:28.061Z,4.25
2023-05-19T02:21:55.214Z,4.18
2023-05-19T02:24:23.117Z,4.40
2023-05-19T02:26:54.299Z,5.03
2023-05-19T02:29:21.139Z,5.82
2023-05-19T02:31:48.238Z,5.85
2023-05-19T02:34:15.171Z,5.68
2023-05-19T02:36:45.450Z,6.13
2023-05-19T02:39:12.504Z,7.75
2023-05-19T02:41:39.434Z,5.25
2023-05-19T02:44:06.506Z,7.22
2023-05-19T02:46:33.782Z,5.75
2023-05-19T02:49:00.586Z,5.05
2023-05-19T02:51:27.539Z,8.10
2023-05-19T02:53:54.378Z,6.80
2023-05-19T02:56:21.960Z,6.07
2023-05-19T02:58:48.887Z,6.85
2023-05-19T03:01:16.140Z,6.47
2023-05-19T03:03:43.098Z,10.70
2023-05-19T03:06:10.029Z,6.60
2023-05-19T03:08:36.926Z,5.80
2023-05-19T03:11:03.685Z,8.50
2023-05-19T03:13:30.570Z,7.32
2023-05-19T03:15:59.262Z,6.70
2023-05-19T03:18:26.825Z,6.80
2023-05-19T03:20:56.634Z,6.90
2023-05-19T03:23:24.188Z,8.05
2023-05-19T03:25:51.242Z,7.30
2023-05-19T03:28:18.278Z,6.43
2023-05-19T03:30:46.588Z,10.07
2023-05-19T03:33:13.604Z,7.28
2023-05-19T03:35:40.557Z,6.95
2023-05-19T03:38:07.727Z,8.07
2023-05-19T03:40:35.001Z,10.10
2023-05-19T03:43:02.119Z,7.32
2023-05-19T03:45:29.078Z,8.68
2023-05-19T03:47:56.182Z,7.75
2023-05-19T03:50:23.187Z,7.47
2023-05-19T03:52:49.996Z,7.95
2023-05-19T03:55:16.983Z,8.50
2023-05-19T03:57:44.558Z,8.85
2023-05-19T04:00:12.419Z,7.22
2023-05-19T04:02:39.539Z,6.25
2023-05-19T04:05:07.442Z,6.38
2023-05-19T04:07:34.219Z,7.25
2023-05-19T04:10:01.220Z,6.65
2023-05-19T04:12:28.388Z,10.23
2023-05-19T04:14:55.217Z,8.32
2023-05-19T04:17:23.827Z,6.45
2023-05-19T04:19:51.211Z,7.95
2023-05-19T04:22:17.995Z,9.10
2023-05-19T04:24:44.836Z,10.50
2023-05-19T04:27:12.431Z,8.93
2023-05-19T04:29:40.148Z,9.85
2023-05-19T04:32:07.928Z,12.18
2023-05-19T04:34:35.540Z,9.63
2023-05-19T04:37:02.667Z,11.60
2023-05-19T04:39:29.582Z,11.23
2023-05-19T04:41:56.728Z,5.55
2023-05-19T04:44:23.531Z,8.73
2023-05-19T04:46:54.457Z,10.48
2023-05-19T04:49:24.482Z,8.63
2023-05-19T04:51:52.315Z,12.45
2023-05-19T04:54:21.475Z,8.75
2023-05-19T04:56:48.260Z,8.13
2023-05-19T04:59:15.138Z,9.20
2023-05-19T05:01:43.405Z,8.95
2023-05-19T05:04:10.762Z,8.68
2023-05-19T05:06:38.532Z,12.02
2023-05-19T05:09:05.375Z,6.95
2023-05-19T05:11:32.520Z,11.55
2023-05-19T05:13:59.724Z,10.90
2023-05-19T05:16:26.775Z,9.82
2023-05-19T05:18:53.975Z,7.68
2023-05-19T05:21:21.285Z,6.85
2023-05-19T05:23:48.391Z,5.93
2023-05-19T05:26:18.244Z,6.60
2023-05-19T05:28:45.180Z,13.07
2023-05-19T05:31:12.214Z,10.30
2023-05-19T05:33:39.161Z,9.40
2023-05-19T05:36:06.325Z,10.98
2023-05-19T05:38:33.120Z,13.07
2023-05-19T05:41:00.568Z,7.75
2023-05-19T05:43:27.423Z,9.90
2023-05-19T05:45:54.528Z,9.90
2023-05-19T05:48:21.983Z,7.53
2023-05-19T05:50:49.031Z,8.07
2023-05-19T05:53:19.804Z,9.85
2023-05-19T05:55:47.543Z,7.38
2023-05-19T05:58:15.849Z,6.38
2023-05-19T06:03:12.646Z,9.05
2023-05-19T06:05:39.876Z,12.70
2023-05-19T06:08:06.980Z,7.00
2023-05-19T06:10:35.797Z,7.38
2023-05-19T06:13:03.833Z,7.68
2023-05-19T06:15:30.772Z,8.07
2023-05-19T06:17:58.239Z,10.30
2023-05-19T06:20:25.722Z,8.52
2023-05-19T06:22:52.537Z,9.02
2023-05-19T06:25:20.769Z,10.27
2023-05-19T06:30:14.606Z,9.10
2023-05-19T06:32:41.649Z,11.63
2023-05-19T06:35:08.748Z,9.00
2023-05-19T06:37:36.437Z,10.73
2023-05-19T06:40:04.032Z,7.05
2023-05-19T06:42:31.591Z,7.65
2023-05-19T06:44:58.545Z,5.95
2023-05-19T06:47:25.364Z,5.63
2023-05-19T06:49:55.659Z,6.47
2023-05-19T06:52:22.891Z,7.90
2023-05-19T06:54:50.041Z,4.43
2023-05-19T06:57:17.627Z,5.75
2023-05-19T06:59:46.786Z,8.80
2023-05-19T07:02:13.775Z,8.93
2023-05-19T07:04:41.280Z,7.30
2023-05-19T07:07:08.437Z,6.10
2023-05-19T07:09:35.474Z,12.38
2023-05-19T07:12:02.570Z,6.25
2023-05-19T07:14:29.460Z,9.18
2023-05-19T07:16:56.733Z,7.63
2023-05-19T07:19:24.272Z,7.72
2023-05-19T07:21:51.273Z,8.73
2023-05-19T07:24:18.319Z,6.25
2023-05-19T07:26:45.209Z,9.80
2023-05-19T07:29:11.953Z,12.38
2023-05-19T07:31:39.551Z,6.18
2023-05-19T07:34:06.587Z,8.70
2023-05-19T07:36:35.273Z,11.02
2023-05-19T07:39:02.114Z,7.53
2023-05-19T07:41:29.034Z,7.55
2023-05-19T07:43:56.129Z,10.13
2023-05-19T07:46:23.099Z,13.85
2023-05-19T07:48:50.479Z,6.93
2023-05-19T07:51:17.925Z,5.85
2023-05-19T07:53:45.045Z,6.47
2023-05-19T07:56:11.841Z,5.30
2023-05-19T07:58:38.788Z,8.32
2023-05-19T08:01:06.081Z,8.35
2023-05-19T08:03:34.021Z,9.18
2023-05-19T08:08:28.154Z,7.15
2023-05-19T08:10:55.106Z,6.30
2023-05-19T08:13:22.044Z,8.32
2023-05-19T08:15:48.910Z,8.70
2023-05-19T08:18:15.885Z,6.35
2023-05-19T08:20:42.855Z,8.68
2023-05-19T08:23:10.127Z,7.75
2023-05-19T08:25:37.542Z,9.30
2023-05-19T08:28:04.524Z,8.27
2023-05-19T08:30:31.778Z,10.82
2023-05-19T08:32:58.927Z,10.05
2023-05-19T08:35:26.144Z,9.35
2023-05-19T08:37:53.102Z,8.13
2023-05-19T08:40:21.060Z,7.50
2023-05-19T08:42:48.352Z,9.25
2023-05-19T08:45:15.269Z,7.40
2023-05-19T08:47:42.954Z,8.50
2023-05-19T08:50:11.289Z,10.90
2023-05-19T08:53:01.966Z,10.43
2023-05-19T08:55:41.316Z,8.65
2023-05-19T08:58:08.171Z,10.90
2023-05-19T09:00:35.291Z,11.88
2023-05-19T09:03:17.410Z,12.85
2023-05-19T09:05:45.838Z,12.98
2023-05-19T09:08:12.749Z,12.13
2023-05-19T09:10:39.452Z,10.45
2023-05-19T09:13:06.486Z,11.27
2023-05-19T09:15:34.330Z,9.95
2023-05-19T09:18:11.834Z,10.40
2023-05-19T09:20:44.378Z,12.57
2023-05-19T09:23:16.302Z,9.68
2023-05-19T09:25:50.350Z,10.50
2023-05-19T09:28:31.734Z,9.70
2023-05-19T09:31:08.998Z,12.55
2023-05-19T09:33:41.618Z,12.25
2023-05-19T09:36:11.150Z,13.32
2023-05-19T09:38:41.535Z,10.70
2023-05-19T09:41:09.349Z,14.88
2023-05-19T09:43:36.702Z,11.88
2023-05-19T09:46:07.560Z,9.02
2023-05-19T09:48:35.642Z,9.80
2023-05-19T09:51:08.625Z,8.93
2023-05-19T09:53:35.593Z,10.73
2023-05-19T09:56:03.730Z,11.52
2023-05-19T09:58:37.114Z,14.90
2023-05-19T10:01:04.493Z,10.70
2023-05-19T10:03:33.258Z,9.60
2023-05-19T10:06:01.518Z,9.65
2023-05-19T10:08:30.017Z,12.25
2023-05-19T10:10:57.327Z,13.27
2023-05-19T10:13:24.161Z,11.43
2023-05-19T10:18:22.507Z,12.90
2023-05-19T10:20:49.550Z,14.38
2023-05-19T10:23:17.009Z,12.43
2023-05-19T10:25:43.962Z,10.35
2023-05-19T10:28:15.206Z,8.77
2023-05-19T10:30:45.733Z,9.43
2023-05-19T10:33:16.890Z,9.93
2023-05-19T10:36:21.462Z,12.02
2023-05-19T10:38:59.276Z,10.70
2023-05-19T10:41:39.356Z,10.52
2023-05-19T10:44:57.517Z,9.50
2023-05-19T10:47:25.681Z,15.48
2023-05-19T10:49:56.273Z,8.85
2023-05-19T10:52:26.328Z,10.98
2023-05-19T10:54:54.993Z,14.10
2023-05-19T10:57:33.198Z,13.93
2023-05-19T11:00:11.287Z,13.30
2023-05-19T11:02:43.180Z,10.25
2023-05-19T11:05:15.178Z,15.50
2023-05-19T11:07:43.715Z,9.40
2023-05-19T11:10:10.903Z,15.35
2023-05-19T11:12:45.315Z,9.73
2023-05-19T11:15:13.179Z,10.73
2023-05-19T11:17:41.650Z,7.63
2023-05-19T11:20:12.377Z,8.68
2023-05-19T11:22:39.410Z,8.45
2023-05-19T11:25:07.917Z,9.40
2023-05-19T11:27:37.544Z,8.90
2023-05-19T11:30:20.272Z,11.55
2023-05-19T11:32:50.527Z,12.77
2023-05-19T11:35:19.435Z,13.90
2023-05-19T11:37:47.842Z,12.68
2023-05-19T11:40:14.888Z,11.52
2023-05-19T11:42:42.328Z,11.07
2023-05-19T11:45:09.977Z,12.68
2023-05-19T11:47:50.779Z,10.88
2023-05-19T11:50:23.681Z,11.13
2023-05-19T11:52:51.652Z,9.90
2023-05-19T11:55:18.958Z,15.52
2023-05-19T11:58:04.066Z,8.43
2023-05-19T12:03:04.571Z,7.97
2023-05-19T12:05:34.434Z,17.02
2023-05-19T12:08:03.083Z,13.50
2023-05-19T12:10:31.245Z,8.77
2023-05-19T12:15:25.777Z,11.55
2023-05-19T12:18:02.152Z,10.00
2023-05-19T12:20:31.967Z,6.28
2023-05-19T12:22:59.603Z,9.50
2023-05-19T12:25:26.649Z,6.53
2023-05-19T12:27:59.670Z,10.98
2023-05-19T12:30:28.012Z,16.52
2023-05-19T12:32:57.070Z,6.95
2023-05-19T12:35:36.406Z,7.30
2023-05-19T12:38:06.979Z,5.78
2023-05-19T12:40:36.654Z,9.02
2023-05-19T12:43:04.432Z,7.82
2023-05-19T12:45:38.968Z,8.55
2023-05-19T12:48:11.277Z,9.23
2023-05-19T12:50:38.294Z,9.00
2023-05-19T12:53:14.083Z,6.63
2023-05-19T12:55:44.843Z,7.22
2023-05-19T12:58:12.370Z,9.35
2023-05-19T13:00:43.755Z,8.45
2023-05-19T13:03:17.908Z,9.57
2023-05-19T13:05:46.840Z,8.63
2023-05-19T13:08:14.666Z,8.25
2023-05-19T13:10:43.027Z,9.80
2023-05-19T13:13:10.105Z,8.77
2023-05-19T13:15:41.326Z,8.07
2023-05-19T13:18:09.225Z,10.05
2023-05-19T13:20:36.954Z,15.52
2023-05-19T13:23:03.906Z,8.55
2023-05-19T13:25:30.991Z,10.13
2023-05-19T13:27:59.588Z,13.25
2023-05-19T13:30:26.577Z,7.85
2023-05-19T13:32:53.377Z,6.88
2023-05-19T13:35:20.806Z,7.55
2023-05-19T13:37:47.604Z,9.48
2023-05-19T13:40:14.555Z,12.88
2023-05-19T13:42:41.368Z,10.65
2023-05-19T13:45:08.845Z,9.50
2023-05-19T13:47:36.052Z,7.28
2023-05-19T13:50:04.782Z,9.20
2023-05-19T13:52:31.821Z,8.32
2023-05-19T13:54:58.601Z,10.73
2023-05-19T13:57:28.560Z,9.40
2023-05-19T14:00:02.760Z,8.80
2023-05-19T14:02:30.891Z,8.05
2023-05-19T14:04:59.542Z,8.45
2023-05-19T14:07:26.292Z,8.73
2023-05-19T14:09:53.990Z,7.68
2023-05-19T14:12:27.543Z,8.10
2023-05-19T14:14:58.775Z,7.82
2023-05-19T14:17:27.218Z,10.38
2023-05-19T14:19:54.228Z,9.85
2023-05-19T14:22:21.275Z,10.52
2023-05-19T14:24:48.388Z,12.45
2023-05-19T14:27:15.167Z,10.98
2023-05-19T14:29:42.592Z,8.27
2023-05-19T14:32:09.463Z,5.72
2023-05-19T14:34:36.311Z,8.05
2023-05-19T14:37:03.193Z,7.70
2023-05-19T14:39:30.605Z,9.38
2023-05-19T14:41:59.645Z,6.75
2023-05-19T14:44:31.773Z,7.55
2023-05-19T14:47:00.177Z,7.28
2023-05-19T14:49:27.084Z,5.72
2023-05-19T14:51:54.086Z,7.90
2023-05-19T14:54:20.881Z,7.40
2023-05-19T14:56:47.673Z,7.57
2023-05-19T14:59:14.475Z,10.88
2023-05-19T15:01:41.371Z,9.50
2023-05-19T15:04:08.143Z,7.95
2023-05-19T15:06:34.953Z,8.32
2023-05-19T15:09:01.834Z,9.77
2023-05-19T15:11:28.648Z,7.90
2023-05-19T15:13:55.577Z,10.52
2023-05-19T15:16:22.483Z,6.63
2023-05-19T15:18:51.515Z,9.45
2023-05-19T15:21:18.620Z,8.73
2023-05-19T15:23:45.414Z,8.18
2023-05-19T15:26:12.162Z,8.25
2023-05-19T15:28:39.054Z,8.48
2023-05-19T15:31:06.052Z,12.05
2023-05-19T15:33:33.141Z,8.68
2023-05-19T15:36:00.117Z,9.18
2023-05-19T15:40:55.309Z,10.77
2023-05-19T15:41:13.858Z,10.80
2023-05-19T15:43:41.607Z,12.52
2023-05-19T15:46:08.585Z,11.25
2023-05-19T15:48:35.610Z,10.65
2023-05-19T15:51:02.561Z,11.93
2023-05-19T15:53:29.330Z,8.57
2023-05-19T15:55:57.579Z,11.60
2023-05-19T16:00:51.352Z,10.48
2023-05-19T16:03:18.311Z,13.88
2023-05-19T16:05:45.130Z,10.77
2023-05-19T16:08:11.986Z,11.15
2023-05-19T16:10:38.835Z,10.23
2023-05-19T16:13:05.624Z,9.75
2023-05-19T16:15:32.419Z,10.77
2023-05-19T16:17:59.439Z,12.85
2023-05-19T16:20:28.245Z,10.23
2023-05-19T16:22:55.609Z,17.58
2023-05-19T16:25:22.975Z,14.32
2023-05-19T16:27:50.348Z,11.80
2023-05-19T16:30:17.158Z,10.55
2023-05-19T16:32:44.069Z,15.68
2023-05-19T16:35:11.314Z,13.15
2023-05-19T16:37:38.773Z,29.50
2023-05-19T16:40:08.428Z,18.02
2023-05-19T16:42:35.322Z,14.50
2023-05-19T16:45:02.271Z,18.52
2023-05-19T16:47:29.352Z,12.20
2023-05-19T16:49:56.458Z,17.25
2023-05-19T16:52:23.256Z,17.08
2023-05-19T16:54:50.136Z,21.15
2023-05-19T16:57:17.040Z,21.50
2023-05-19T16:59:43.830Z,21.70
2023-05-19T17:02:10.686Z,21.13
2023-05-19T17:04:37.566Z,21.42
2023-05-19T17:07:04.672Z,18.48
2023-05-19T17:09:31.819Z,17.00
2023-05-19T17:11:59.030Z,19.45
2023-05-19T17:14:25.853Z,18.98
2023-05-19T17:16:52.691Z,23.05
2023-05-19T17:19:19.682Z,23.10
2023-05-19T17:21:46.601Z,19.67
2023-05-19T17:24:13.456Z,19.83
2023-05-19T17:26:40.251Z,23.42
2023-05-19T17:29:07.415Z,30.38
2023-05-19T17:31:34.434Z,38.83
2023-05-19T17:34:01.289Z,46.50
2023-05-19T17:36:28.476Z,35.85
2023-05-19T17:38:55.537Z,56.42
2023-05-19T17:41:22.807Z,47.60
2023-05-19T17:43:49.732Z,57.85
2023-05-19T17:46:16.648Z,50.63
2023-05-19T17:48:44.038Z,24.08
2023-05-19T17:51:11.585Z,45.50
2023-05-19T17:53:38.826Z,54.97
2023-05-19T17:56:11.304Z,47.30
2023-05-19T17:58:38.733Z,37.60
2023-05-19T18:01:06.074Z,31.58
2023-05-19T18:03:33.676Z,26.65
2023-05-19T18:06:00.645Z,30.70
2023-05-19T18:08:27.474Z,24.27
2023-05-19T18:10:54.318Z,27.83
2023-05-19T18:13:22.967Z,24.65
2023-05-19T18:15:50.053Z,28.40
2023-05-19T18:18:17.007Z,34.92
2023-05-19T18:20:46.196Z,32.20
2023-05-19T18:23:13.137Z,32.60
2023-05-19T18:25:39.989Z,32.08
2023-05-19T18:28:07.932Z,26.42
2023-05-19T18:30:35.073Z,39.38
2023-05-19T18:33:03.913Z,23.75
2023-05-19T18:35:31.204Z,18.77
2023-05-19T18:37:58.021Z,23.25
2023-05-19T18:40:24.932Z,15.77
2023-05-19T18:42:51.941Z,26.05
2023-05-19T18:45:19.001Z,24.92
2023-05-19T18:47:46.645Z,19.95
2023-05-19T18:50:14.600Z,11.50
2023-05-19T18:52:41.459Z,9.25
2023-05-19T18:55:08.656Z,7.95
2023-05-19T18:57:35.557Z,15.85
2023-05-19T19:00:02.759Z,13.40
2023-05-19T19:02:29.626Z,29.85
2023-05-19T19:04:56.555Z,16.75
2023-05-19T19:07:24.476Z,15.20
2023-05-19T19:09:53.937Z,10.18
2023-05-19T19:12:21.333Z,12.50
2023-05-19T19:14:48.242Z,14.20
2023-05-19T19:17:15.149Z,15.50
2023-05-19T19:19:42.436Z,17.92
2023-05-19T19:22:09.455Z,21.30
2023-05-19T19:24:36.316Z,22.50
2023-05-19T19:27:03.969Z,21.92
2023-05-19T19:29:30.911Z,24.80
2023-05-19T19:31:57.768Z,23.65
2023-05-19T19:34:24.715Z,17.52
2023-05-19T19:36:51.532Z,18.95
2023-05-19T19:39:18.496Z,22.40
2023-05-19T19:41:45.532Z,19.20
2023-05-19T19:44:13.589Z,21.30
2023-05-19T19:46:40.632Z,21.65
2023-05-19T19:49:07.608Z,23.58
2023-05-19T19:51:34.343Z,20.58
2023-05-19T19:54:01.161Z,19.90
2023-05-19T19:56:28.342Z,14.85
2023-05-19T19:58:57.529Z,17.58
2023-05-19T20:01:27.635Z,17.27
2023-05-19T20:03:55.421Z,20.58
2023-05-19T20:06:22.400Z,19.35
2023-05-19T20:08:49.420Z,24.33
2023-05-19T20:11:16.678Z,18.33
2023-05-19T20:13:43.615Z,22.48
2023-05-19T20:16:10.463Z,12.90
2023-05-19T20:18:37.352Z,15.15
2023-05-19T20:21:04.209Z,10.30
2023-05-19T20:23:31.028Z,12.98
2023-05-19T20:26:10.722Z,13.70
2023-05-19T20:28:38.330Z,14.88
2023-05-19T20:31:05.925Z,15.57
2023-05-19T20:33:32.664Z,15.07
2023-05-19T20:35:59.388Z,16.08
2023-05-19T20:38:26.180Z,16.58
2023-05-19T20:40:54.330Z,17.02
2023-05-19T20:43:21.366Z,18.55
2023-05-19T20:45:48.338Z,17.50
2023-05-19T20:48:16.140Z,22.80
2023-05-19T20:50:43.187Z,19.10
2023-05-19T20:53:10.111Z,20.70
2023-05-19T20:55:41.351Z,21.42
2023-05-19T20:58:08.199Z,19.05
2023-05-19T21:00:35.191Z,17.92
2023-05-19T21:03:02.258Z,23.42
2023-05-19T21:05:29.312Z,18.65
2023-05-19T21:07:56.440Z,19.55
2023-05-19T21:10:23.343Z,20.67
2023-05-19T21:12:50.139Z,17.25
2023-05-19T21:15:17.114Z,20.33
2023-05-19T21:17:44.003Z,17.40
2023-05-19T21:20:11.233Z,22.58
2023-05-19T21:22:38.361Z,24.73
2023-05-19T21:25:05.636Z,17.15
2023-05-19T21:27:35.951Z,15.82
2023-05-19T21:30:02.925Z,14.88
2023-05-19T21:32:30.476Z,20.52
2023-05-19T21:34:57.294Z,24.20
2023-05-19T21:37:24.094Z,28.90
2023-05-19T21:39:50.945Z,23.75
2023-05-19T21:42:17.777Z,34.13
2023-05-19T21:44:44.736Z,56.75
2023-05-19T21:47:11.642Z,30.23
2023-05-19T21:49:40.405Z,19.13
2023-05-19T21:52:07.995Z,25.83
2023-05-19T21:54:35.038Z,36.97
2023-05-19T21:57:02.526Z,20.85
2023-05-19T21:59:29.371Z,18.05
2023-05-19T22:01:56.079Z,14.00
2023-05-19T22:04:23.718Z,17.42
2023-05-19T22:06:50.612Z,12.95
2023-05-19T22:09:18.201Z,13.27
2023-05-19T22:11:45.074Z,18.30
2023-05-19T22:14:12.076Z,15.00
2023-05-19T22:16:39.226Z,12.77
2023-05-19T22:19:06.186Z,22.38
2023-05-19T22:21:33.324Z,23.73
2023-05-19T22:24:00.201Z,15.00
2023-05-19T22:26:27.323Z,14.60
2023-05-19T22:28:54.097Z,19.35
2023-05-19T22:31:21.050Z,15.25
2023-05-19T22:33:47.839Z,12.43
2023-05-19T22:36:16.186Z,18.42
2023-05-19T22:38:43.057Z,24.38
2023-05-19T22:41:09.840Z,18.40
2023-05-19T22:43:37.001Z,12.20
2023-05-19T22:46:04.024Z,12.05
2023-05-19T22:48:30.935Z,14.85
2023-05-19T22:50:57.781Z,14.18
2023-05-19T22:53:24.495Z,12.52
2023-05-19T22:55:51.519Z,17.40
2023-05-19T22:58:19.073Z,18.33
2023-05-19T23:00:46.077Z,22.35
2023-05-19T23:03:13.143Z,23.58
2023-05-19T23:05:40.740Z,16.52
2023-05-19T23:08:07.587Z,13.35
2023-05-19T23:10:34.375Z,14.90
2023-05-19T23:13:01.370Z,14.20
2023-05-19T23:15:29.350Z,14.23
2023-05-19T23:17:56.337Z,10.55
2023-05-19T23:20:23.226Z,13.70
2023-05-19T23:22:50.030Z,9.95
2023-05-19T23:25:16.926Z,11.05
2023-05-19T23:27:44.084Z,13.77
2023-05-19T23:30:11.070Z,14.70
2023-05-19T23:32:37.945Z,11.93
2023-05-19T23:35:16.676Z,11.32
2023-05-19T23:37:43.584Z,13.73
2023-05-19T23:40:10.709Z,13.52
2023-05-19T23:42:37.672Z,12.05
2023-05-19T23:45:04.938Z,13.73
2023-05-19T23:47:31.768Z,14.75
2023-05-19T23:49:58.625Z,13.13
2023-05-19T23:52:25.466Z,12.68
2023-05-19T23:54:52.310Z,18.08
2023-05-19T23:57:19.146Z,11.43
2023-05-19T23:59:46.197Z,12.75
